Flight Track Log - Related Links

Times and Time Zones

All times are in EDT time to prevent confusion due to time zone crossing. See the N830QS flight status page for this flight to view local times or setup timezone preferences in your user account.

Time Position Orientation Groundspeed Altitude Reporting Facility
EDT Latitude Longitude Course Direction KTS MPH feet Rate Location/Type
Thu 03:56:06 PM 30.0331 -95.5739 224° Southwest 193 222 2,000  Level Houston Center
Thu 03:57:07 PM 29.9983 -95.6311 235° Southwest 208 239 2,000  Level Houston Center
Thu 03:58:08 PM 29.9464 -95.6611 207° Southwest 199 229 2,000  Level Houston Center
Thu 03:59:09 PM 29.8986 -95.6908 208° Southwest 198 228 2,000 585 Level Houston Center
Thu 04:00:11 PM 29.8869 -95.7500 257° West 234 269 3,200 2,146 Climbing Houston Center
Thu 04:01:12 PM 29.8822 -95.8375 266° West 284 327 6,400 3,639 Climbing Houston Center
Thu 04:02:13 PM 29.8289 -95.9014 226° Southwest 267 307 10,600 3,627 Climbing Houston Center
Thu 04:03:26 PM 29.7883 -95.9897 242° Southwest 287 330 14,500 2,400 Climbing Houston Center
Thu 04:04:28 PM 29.7833 -96.0881 267° West 304 350 16,000 726 Climbing Houston Center
Thu 04:05:30 PM 29.7786 -96.1983 267° West 337 388 16,000  Level Houston Center
Thu 04:06:32 PM 29.7875 -96.3128 275° West 357 411 16,000  Level Houston Center
Thu 04:07:34 PM 29.7981 -96.4472 275° West 354 407 16,000  Level Houston Center
Thu 04:08:36 PM 29.8072 -96.5653 275° West 365 420 16,000  Level Houston Center
Thu 04:09:39 PM 29.8158 -96.6853 275° West 375 432 16,000  Level Houston Center
Thu 04:10:41 PM 29.8250 -96.8050 275° West 376 433 16,000  Level Houston Center
Thu 04:11:43 PM 29.8333 -96.9247 275° West 376 433 16,000  Level Houston Center
Thu 04:12:45 PM 29.8439 -97.0667 275° West 378 435 16,000  Level Houston Center
Thu 04:13:47 PM 29.8522 -97.1881 275° West 378 435 16,000  Level Houston Center
Thu 04:14:49 PM 29.8597 -97.3092 274° West 377 434 16,000  Level Houston Center
Thu 04:15:51 PM 29.8686 -97.4308 275° West 377 434 16,000  Level Houston Center
Thu 04:16:53 PM 29.8772 -97.5658 274° West 374 430 16,000 -235 Level Houston Center
Thu 04:17:33 PM 29.8836 -97.6417 276° West 377 434 15,600 -1,248 Descending Houston Center
Thu 04:18:58 PM 29.8953 -97.8153 274° West 374 430 13,400 -1,143 Descending Houston Center
Thu 04:20:00 PM 29.8728 -97.9189 256° West 343 395 12,800 -836 Descending Houston Center
Thu 04:21:00 PM 29.8319 -98.0194 245° Southwest 349 402 11,700 -1,016 Descending Houston Center
Thu 04:22:04 PM 29.7864 -98.1256 244° Southwest 341 392 10,700 -991 Descending Houston Center
Thu 04:22:55 PM 29.7564 -98.1997 245° Southwest 296 341 9,800 -1,018 Descending Houston Center
Thu 04:23:56 PM 29.7197 -98.2789 242° Southwest 274 315 8,800 -1,015 Descending Houston Center
Thu 04:25:11 PM 29.6781 -98.3800 245° Southwest 284 327 7,500 -1,927 Descending Houston Center
Thu 04:26:13 PM 29.6522 -98.4633 250° West 291 335 4,400 -2,737 Descending Houston Center
Thu 04:27:05 PM 29.6378 -98.5269 255° West 256 295 2,300 -1,381 Descending Houston Center
Thu 04:28:06 PM 29.5789 -98.5269 180° South 177 204 1,800 -585 Descending Houston Center
Thu 04:29:08 PM 29.5508 -98.4967 137° Southeast 123 142 1,100 -677 Descending Houston Center
Thu 04:31:00 PM 29.5340 -98.4691 168° South  Level Estimated

Login

Don't have an account? Register now (free) for customized features, flight alerts, and more!